sensor_id;sensor_type;location;lat;lon;timestamp;P1;durP1;ratioP1;P2;durP2;ratioP2
6095;SDS011;25081;42.698;23.298;2024-02-23T00:01:20;15.53;;;8.60;;
6095;SDS011;25081;42.698;23.298;2024-02-23T00:03:29;12.88;;;7.60;;
6095;SDS011;25081;42.698;23.298;2024-02-23T00:05:37;12.75;;;7.97;;
6095;SDS011;25081;42.698;23.298;2024-02-23T00:07:46;12.43;;;6.85;;
6095;SDS011;25081;42.698;23.298;2024-02-23T00:09:55;11.55;;;6.97;;
6095;SDS011;25081;42.698;23.298;2024-02-23T00:12:04;11.55;;;8.65;;
6095;SDS011;25081;42.698;23.298;2024-02-23T00:14:14;13.03;;;8.18;;
6095;SDS011;25081;42.698;23.298;2024-02-23T00:16:22;13.18;;;7.50;;
6095;SDS011;25081;42.698;23.298;2024-02-23T00:18:31;15.63;;;8.90;;
6095;SDS011;25081;42.698;23.298;2024-02-23T00:20:40;9.75;;;6.70;;
6095;SDS011;25081;42.698;23.298;2024-02-23T00:22:48;12.25;;;8.18;;
6095;SDS011;25081;42.698;23.298;2024-02-23T00:24:57;11.15;;;8.00;;
6095;SDS011;25081;42.698;23.298;2024-02-23T00:27:06;11.75;;;7.37;;
6095;SDS011;25081;42.698;23.298;2024-02-23T00:29:15;10.50;;;6.53;;
6095;SDS011;25081;42.698;23.298;2024-02-23T00:31:23;9.75;;;6.12;;
6095;SDS011;25081;42.698;23.298;2024-02-23T00:33:32;9.33;;;6.37;;
6095;SDS011;25081;42.698;23.298;2024-02-23T00:35:41;12.85;;;7.67;;
6095;SDS011;25081;42.698;23.298;2024-02-23T00:37:50;10.48;;;7.10;;
6095;SDS011;25081;42.698;23.298;2024-02-23T00:39:58;8.58;;;6.87;;
6095;SDS011;25081;42.698;23.298;2024-02-23T00:42:07;14.23;;;7.50;;
6095;SDS011;25081;42.698;23.298;2024-02-23T00:44:16;11.93;;;7.65;;
6095;SDS011;25081;42.698;23.298;2024-02-23T00:46:25;10.82;;;7.35;;
6095;SDS011;25081;42.698;23.298;2024-02-23T00:48:34;8.38;;;6.55;;
6095;SDS011;25081;42.698;23.298;2024-02-23T00:50:42;11.65;;;7.15;;
6095;SDS011;25081;42.698;23.298;2024-02-23T00:52:51;10.78;;;8.10;;
6095;SDS011;25081;42.698;23.298;2024-02-23T00:55:00;9.08;;;6.80;;
6095;SDS011;25081;42.698;23.298;2024-02-23T00:57:08;10.05;;;7.20;;
6095;SDS011;25081;42.698;23.298;2024-02-23T00:59:17;11.83;;;6.95;;
6095;SDS011;25081;42.698;23.298;2024-02-23T01:01:26;10.70;;;7.67;;
6095;SDS011;25081;42.698;23.298;2024-02-23T01:03:35;8.90;;;6.28;;
6095;SDS011;25081;42.698;23.298;2024-02-23T01:05:43;11.33;;;7.42;;
6095;SDS011;25081;42.698;23.298;2024-02-23T01:07:52;8.73;;;7.10;;
6095;SDS011;25081;42.698;23.298;2024-02-23T01:10:01;16.80;;;8.70;;
6095;SDS011;25081;42.698;23.298;2024-02-23T01:12:10;21.05;;;9.63;;
6095;SDS011;25081;42.698;23.298;2024-02-23T01:14:18;18.40;;;9.20;;
6095;SDS011;25081;42.698;23.298;2024-02-23T01:16:27;18.90;;;9.23;;
6095;SDS011;25081;42.698;23.298;2024-02-23T01:18:36;19.95;;;10.00;;
6095;SDS011;25081;42.698;23.298;2024-02-23T01:20:45;27.90;;;11.85;;
6095;SDS011;25081;42.698;23.298;2024-02-23T01:22:53;24.72;;;11.65;;
6095;SDS011;25081;42.698;23.298;2024-02-23T01:25:02;19.87;;;11.10;;
6095;SDS011;25081;42.698;23.298;2024-02-23T01:27:12;19.17;;;11.00;;
6095;SDS011;25081;42.698;23.298;2024-02-23T01:29:20;14.35;;;8.48;;
6095;SDS011;25081;42.698;23.298;2024-02-23T01:31:29;15.75;;;8.68;;
6095;SDS011;25081;42.698;23.298;2024-02-23T01:33:38;14.25;;;8.83;;
6095;SDS011;25081;42.698;23.298;2024-02-23T01:35:46;16.77;;;9.73;;
6095;SDS011;25081;42.698;23.298;2024-02-23T01:37:55;14.98;;;8.60;;
6095;SDS011;25081;42.698;23.298;2024-02-23T01:40:05;11.78;;;8.23;;
6095;SDS011;25081;42.698;23.298;2024-02-23T01:42:15;11.55;;;8.03;;
6095;SDS011;25081;42.698;23.298;2024-02-23T01:44:23;14.55;;;8.55;;
6095;SDS011;25081;42.698;23.298;2024-02-23T01:46:32;13.43;;;9.28;;
6095;SDS011;25081;42.698;23.298;2024-02-23T01:48:41;12.33;;;8.98;;
6095;SDS011;25081;42.698;23.298;2024-02-23T01:50:49;15.40;;;8.08;;
6095;SDS011;25081;42.698;23.298;2024-02-23T01:52:59;10.80;;;7.00;;
6095;SDS011;25081;42.698;23.298;2024-02-23T01:55:07;12.73;;;7.80;;
6095;SDS011;25081;42.698;23.298;2024-02-23T01:57:16;14.55;;;8.10;;
6095;SDS011;25081;42.698;23.298;2024-02-23T01:59:25;11.05;;;8.03;;
6095;SDS011;25081;42.698;23.298;2024-02-23T02:01:34;11.73;;;7.67;;
6095;SDS011;25081;42.698;23.298;2024-02-23T02:03:43;13.13;;;8.50;;
6095;SDS011;25081;42.698;23.298;2024-02-23T02:05:51;14.93;;;8.25;;
6095;SDS011;25081;42.698;23.298;2024-02-23T02:08:00;10.18;;;7.65;;
6095;SDS011;25081;42.698;23.298;2024-02-23T02:10:09;12.78;;;7.67;;
6095;SDS011;25081;42.698;23.298;2024-02-23T02:12:26;9.38;;;7.10;;
6095;SDS011;25081;42.698;23.298;2024-02-23T02:14:35;9.55;;;7.15;;
6095;SDS011;25081;42.698;23.298;2024-02-23T02:16:44;8.60;;;7.17;;
6095;SDS011;25081;42.698;23.298;2024-02-23T02:18:53;13.05;;;7.95;;
6095;SDS011;25081;42.698;23.298;2024-02-23T02:21:01;12.05;;;7.25;;
6095;SDS011;25081;42.698;23.298;2024-02-23T02:23:10;11.22;;;7.67;;
6095;SDS011;25081;42.698;23.298;2024-02-23T02:25:19;11.38;;;7.45;;
6095;SDS011;25081;42.698;23.298;2024-02-23T02:27:28;28.92;;;7.90;;
6095;SDS011;25081;42.698;23.298;2024-02-23T02:29:37;12.98;;;7.37;;
6095;SDS011;25081;42.698;23.298;2024-02-23T02:31:45;13.28;;;8.25;;
6095;SDS011;25081;42.698;23.298;2024-02-23T02:33:54;12.85;;;7.40;;
6095;SDS011;25081;42.698;23.298;2024-02-23T02:36:03;12.82;;;8.50;;
6095;SDS011;25081;42.698;23.298;2024-02-23T02:38:14;10.65;;;7.90;;
6095;SDS011;25081;42.698;23.298;2024-02-23T02:40:23;12.85;;;8.65;;
6095;SDS011;25081;42.698;23.298;2024-02-23T02:42:32;13.05;;;8.35;;
6095;SDS011;25081;42.698;23.298;2024-02-23T02:44:41;12.70;;;8.65;;
6095;SDS011;25081;42.698;23.298;2024-02-23T02:46:49;12.07;;;8.80;;
6095;SDS011;25081;42.698;23.298;2024-02-23T02:48:58;12.63;;;8.80;;
6095;SDS011;25081;42.698;23.298;2024-02-23T02:51:07;11.05;;;7.95;;
6095;SDS011;25081;42.698;23.298;2024-02-23T02:53:16;12.40;;;7.90;;
6095;SDS011;25081;42.698;23.298;2024-02-23T02:55:24;13.83;;;8.58;;
6095;SDS011;25081;42.698;23.298;2024-02-23T02:57:33;15.95;;;7.70;;
6095;SDS011;25081;42.698;23.298;2024-02-23T02:59:43;12.45;;;9.03;;
6095;SDS011;25081;42.698;23.298;2024-02-23T03:01:51;12.23;;;8.48;;
6095;SDS011;25081;42.698;23.298;2024-02-23T03:04:00;11.53;;;8.15;;
6095;SDS011;25081;42.698;23.298;2024-02-23T03:06:09;12.28;;;8.93;;
6095;SDS011;25081;42.698;23.298;2024-02-23T03:08:17;16.35;;;9.20;;
6095;SDS011;25081;42.698;23.298;2024-02-23T03:10:26;12.53;;;7.72;;
6095;SDS011;25081;42.698;23.298;2024-02-23T03:12:35;12.25;;;7.72;;
6095;SDS011;25081;42.698;23.298;2024-02-23T03:14:43;11.45;;;8.65;;
6095;SDS011;25081;42.698;23.298;2024-02-23T03:16:52;12.45;;;9.33;;
6095;SDS011;25081;42.698;23.298;2024-02-23T03:19:01;13.98;;;8.08;;
6095;SDS011;25081;42.698;23.298;2024-02-23T03:21:10;11.90;;;8.33;;
6095;SDS011;25081;42.698;23.298;2024-02-23T03:23:19;12.68;;;8.73;;
6095;SDS011;25081;42.698;23.298;2024-02-23T03:25:27;13.45;;;9.10;;
6095;SDS011;25081;42.698;23.298;2024-02-23T03:27:36;13.10;;;8.70;;
6095;SDS011;25081;42.698;23.298;2024-02-23T03:29:45;13.60;;;8.93;;
6095;SDS011;25081;42.698;23.298;2024-02-23T03:31:53;13.03;;;8.23;;
6095;SDS011;25081;42.698;23.298;2024-02-23T03:34:02;16.27;;;8.45;;
6095;SDS011;25081;42.698;23.298;2024-02-23T03:36:11;11.73;;;9.25;;
6095;SDS011;25081;42.698;23.298;2024-02-23T03:38:20;11.97;;;8.20;;
6095;SDS011;25081;42.698;23.298;2024-02-23T03:40:28;13.85;;;8.90;;
6095;SDS011;25081;42.698;23.298;2024-02-23T03:42:38;14.25;;;8.33;;
6095;SDS011;25081;42.698;23.298;2024-02-23T03:44:46;10.13;;;8.13;;
6095;SDS011;25081;42.698;23.298;2024-02-23T03:46:55;13.83;;;8.18;;
6095;SDS011;25081;42.698;23.298;2024-02-23T03:49:04;12.43;;;8.45;;
6095;SDS011;25081;42.698;23.298;2024-02-23T03:51:12;13.53;;;7.85;;
6095;SDS011;25081;42.698;23.298;2024-02-23T03:53:21;11.97;;;8.73;;
6095;SDS011;25081;42.698;23.298;2024-02-23T03:55:30;13.45;;;8.23;;
6095;SDS011;25081;42.698;23.298;2024-02-23T03:57:39;15.93;;;9.98;;
6095;SDS011;25081;42.698;23.298;2024-02-23T03:59:54;14.45;;;9.05;;
6095;SDS011;25081;42.698;23.298;2024-02-23T04:02:02;12.13;;;8.88;;
6095;SDS011;25081;42.698;23.298;2024-02-23T04:04:11;11.30;;;8.18;;
6095;SDS011;25081;42.698;23.298;2024-02-23T04:06:20;15.05;;;8.98;;
6095;SDS011;25081;42.698;23.298;2024-02-23T04:08:29;12.23;;;8.85;;
6095;SDS011;25081;42.698;23.298;2024-02-23T04:10:37;10.63;;;8.08;;
6095;SDS011;25081;42.698;23.298;2024-02-23T04:12:47;12.43;;;8.18;;
6095;SDS011;25081;42.698;23.298;2024-02-23T04:14:56;11.63;;;7.85;;
6095;SDS011;25081;42.698;23.298;2024-02-23T04:17:04;13.98;;;8.78;;
6095;SDS011;25081;42.698;23.298;2024-02-23T04:19:13;28.92;;;20.52;;
6095;SDS011;25081;42.698;23.298;2024-02-23T04:21:22;14.80;;;9.93;;
6095;SDS011;25081;42.698;23.298;2024-02-23T04:23:30;15.30;;;9.78;;
6095;SDS011;25081;42.698;23.298;2024-02-23T04:25:39;13.08;;;9.43;;
6095;SDS011;25081;42.698;23.298;2024-02-23T04:27:48;11.12;;;8.00;;
6095;SDS011;25081;42.698;23.298;2024-02-23T04:29:57;11.63;;;7.95;;
6095;SDS011;25081;42.698;23.298;2024-02-23T04:32:06;11.65;;;8.50;;
6095;SDS011;25081;42.698;23.298;2024-02-23T04:34:15;13.62;;;8.30;;
6095;SDS011;25081;42.698;23.298;2024-02-23T04:36:24;11.97;;;7.78;;
6095;SDS011;25081;42.698;23.298;2024-02-23T04:38:33;12.93;;;7.30;;
6095;SDS011;25081;42.698;23.298;2024-02-23T04:40:41;11.50;;;7.80;;
6095;SDS011;25081;42.698;23.298;2024-02-23T04:42:50;8.60;;;6.90;;
6095;SDS011;25081;42.698;23.298;2024-02-23T04:44:59;10.98;;;7.85;;
6095;SDS011;25081;42.698;23.298;2024-02-23T04:47:08;13.45;;;8.95;;
6095;SDS011;25081;42.698;23.298;2024-02-23T04:49:17;13.13;;;8.85;;
6095;SDS011;25081;42.698;23.298;2024-02-23T04:51:26;13.32;;;8.65;;
6095;SDS011;25081;42.698;23.298;2024-02-23T04:53:37;12.98;;;9.10;;
6095;SDS011;25081;42.698;23.298;2024-02-23T04:55:45;11.57;;;8.90;;
6095;SDS011;25081;42.698;23.298;2024-02-23T04:57:54;19.90;;;9.33;;
6095;SDS011;25081;42.698;23.298;2024-02-23T05:00:03;15.10;;;7.85;;
6095;SDS011;25081;42.698;23.298;2024-02-23T05:02:12;16.35;;;9.53;;
6095;SDS011;25081;42.698;23.298;2024-02-23T05:04:21;16.45;;;9.58;;
6095;SDS011;25081;42.698;23.298;2024-02-23T05:06:30;15.48;;;8.68;;
6095;SDS011;25081;42.698;23.298;2024-02-23T05:08:38;14.93;;;9.18;;
6095;SDS011;25081;42.698;23.298;2024-02-23T05:10:47;16.82;;;9.70;;
6095;SDS011;25081;42.698;23.298;2024-02-23T05:12:56;15.30;;;9.48;;
6095;SDS011;25081;42.698;23.298;2024-02-23T05:15:05;16.00;;;10.30;;
6095;SDS011;25081;42.698;23.298;2024-02-23T05:17:15;11.73;;;7.95;;
6095;SDS011;25081;42.698;23.298;2024-02-23T05:19:23;18.17;;;10.80;;
6095;SDS011;25081;42.698;23.298;2024-02-23T05:21:32;17.30;;;11.35;;
6095;SDS011;25081;42.698;23.298;2024-02-23T05:23:41;19.62;;;12.15;;
6095;SDS011;25081;42.698;23.298;2024-02-23T05:25:49;14.43;;;10.03;;
6095;SDS011;25081;42.698;23.298;2024-02-23T05:27:58;18.10;;;11.60;;
6095;SDS011;25081;42.698;23.298;2024-02-23T05:30:07;20.80;;;10.20;;
6095;SDS011;25081;42.698;23.298;2024-02-23T05:32:17;20.25;;;9.55;;
6095;SDS011;25081;42.698;23.298;2024-02-23T05:34:26;23.25;;;12.85;;
6095;SDS011;25081;42.698;23.298;2024-02-23T05:36:34;19.15;;;13.60;;
6095;SDS011;25081;42.698;23.298;2024-02-23T05:38:43;15.78;;;9.45;;
6095;SDS011;25081;42.698;23.298;2024-02-23T05:40:52;13.65;;;9.30;;
6095;SDS011;25081;42.698;23.298;2024-02-23T05:43:01;19.30;;;10.98;;
6095;SDS011;25081;42.698;23.298;2024-02-23T05:45:10;22.85;;;13.05;;
6095;SDS011;25081;42.698;23.298;2024-02-23T05:47:18;21.73;;;13.90;;
6095;SDS011;25081;42.698;23.298;2024-02-23T05:49:28;26.73;;;13.40;;
6095;SDS011;25081;42.698;23.298;2024-02-23T05:51:38;16.70;;;11.30;;
6095;SDS011;25081;42.698;23.298;2024-02-23T05:53:47;17.77;;;11.48;;
6095;SDS011;25081;42.698;23.298;2024-02-23T05:55:56;22.48;;;13.35;;
6095;SDS011;25081;42.698;23.298;2024-02-23T05:58:04;18.02;;;12.18;;
6095;SDS011;25081;42.698;23.298;2024-02-23T06:00:14;15.55;;;10.20;;
6095;SDS011;25081;42.698;23.298;2024-02-23T06:02:23;17.05;;;10.85;;
6095;SDS011;25081;42.698;23.298;2024-02-23T06:04:32;17.35;;;11.50;;
6095;SDS011;25081;42.698;23.298;2024-02-23T06:06:42;18.05;;;11.70;;
6095;SDS011;25081;42.698;23.298;2024-02-23T06:08:50;16.35;;;11.60;;
6095;SDS011;25081;42.698;23.298;2024-02-23T06:10:59;19.00;;;11.40;;
6095;SDS011;25081;42.698;23.298;2024-02-23T06:13:07;19.85;;;10.85;;
6095;SDS011;25081;42.698;23.298;2024-02-23T06:15:16;23.18;;;11.38;;
6095;SDS011;25081;42.698;23.298;2024-02-23T06:17:25;12.93;;;9.98;;
6095;SDS011;25081;42.698;23.298;2024-02-23T06:19:34;14.78;;;10.65;;
6095;SDS011;25081;42.698;23.298;2024-02-23T06:21:42;17.25;;;8.70;;
6095;SDS011;25081;42.698;23.298;2024-02-23T06:23:51;20.32;;;11.05;;
6095;SDS011;25081;42.698;23.298;2024-02-23T06:26:00;20.30;;;11.03;;
6095;SDS011;25081;42.698;23.298;2024-02-23T06:28:08;19.32;;;11.48;;
6095;SDS011;25081;42.698;23.298;2024-02-23T06:30:17;15.63;;;11.20;;
6095;SDS011;25081;42.698;23.298;2024-02-23T06:32:26;16.80;;;10.53;;
6095;SDS011;25081;42.698;23.298;2024-02-23T06:34:34;18.82;;;11.85;;
6095;SDS011;25081;42.698;23.298;2024-02-23T06:36:44;14.05;;;9.15;;
6095;SDS011;25081;42.698;23.298;2024-02-23T06:38:52;17.05;;;11.70;;
6095;SDS011;25081;42.698;23.298;2024-02-23T06:41:01;11.85;;;8.20;;
6095;SDS011;25081;42.698;23.298;2024-02-23T06:43:10;17.80;;;11.80;;
6095;SDS011;25081;42.698;23.298;2024-02-23T06:45:19;17.95;;;10.98;;
6095;SDS011;25081;42.698;23.298;2024-02-23T06:47:27;16.65;;;11.75;;
6095;SDS011;25081;42.698;23.298;2024-02-23T06:49:36;16.20;;;11.28;;
6095;SDS011;25081;42.698;23.298;2024-02-23T06:51:45;13.48;;;8.25;;
6095;SDS011;25081;42.698;23.298;2024-02-23T06:53:53;12.18;;;7.85;;
6095;SDS011;25081;42.698;23.298;2024-02-23T06:56:02;11.78;;;5.87;;
6095;SDS011;25081;42.698;23.298;2024-02-23T06:58:12;14.80;;;10.65;;
6095;SDS011;25081;42.698;23.298;2024-02-23T07:00:21;18.50;;;12.40;;
6095;SDS011;25081;42.698;23.298;2024-02-23T07:02:30;19.00;;;11.08;;
6095;SDS011;25081;42.698;23.298;2024-02-23T07:04:39;15.30;;;10.60;;
6095;SDS011;25081;42.698;23.298;2024-02-23T07:06:47;16.55;;;9.80;;
6095;SDS011;25081;42.698;23.298;2024-02-23T07:08:56;15.63;;;9.90;;
6095;SDS011;25081;42.698;23.298;2024-02-23T07:11:05;15.40;;;10.68;;
6095;SDS011;25081;42.698;23.298;2024-02-23T07:13:13;17.48;;;11.70;;
6095;SDS011;25081;42.698;23.298;2024-02-23T07:15:22;16.93;;;11.05;;
6095;SDS011;25081;42.698;23.298;2024-02-23T07:17:31;15.63;;;11.05;;
6095;SDS011;25081;42.698;23.298;2024-02-23T07:19:40;16.07;;;10.60;;
6095;SDS011;25081;42.698;23.298;2024-02-23T07:21:48;17.07;;;11.00;;
6095;SDS011;25081;42.698;23.298;2024-02-23T07:23:57;18.17;;;11.53;;
6095;SDS011;25081;42.698;23.298;2024-02-23T07:26:06;20.65;;;12.13;;
6095;SDS011;25081;42.698;23.298;2024-02-23T07:28:14;17.87;;;12.33;;
6095;SDS011;25081;42.698;23.298;2024-02-23T07:30:23;18.75;;;12.95;;
6095;SDS011;25081;42.698;23.298;2024-02-23T07:32:32;16.40;;;11.28;;
6095;SDS011;25081;42.698;23.298;2024-02-23T07:34:40;10.13;;;5.62;;
6095;SDS011;25081;42.698;23.298;2024-02-23T07:36:51;19.02;;;12.25;;
6095;SDS011;25081;42.698;23.298;2024-02-23T07:38:59;18.35;;;11.48;;
6095;SDS011;25081;42.698;23.298;2024-02-23T07:41:08;20.08;;;12.35;;
6095;SDS011;25081;42.698;23.298;2024-02-23T07:43:17;21.17;;;13.30;;
6095;SDS011;25081;42.698;23.298;2024-02-23T07:45:26;18.67;;;12.93;;
6095;SDS011;25081;42.698;23.298;2024-02-23T07:47:34;19.97;;;13.00;;
6095;SDS011;25081;42.698;23.298;2024-02-23T07:49:43;24.07;;;14.03;;
6095;SDS011;25081;42.698;23.298;2024-02-23T07:51:52;21.90;;;14.23;;
6095;SDS011;25081;42.698;23.298;2024-02-23T07:54:00;20.33;;;14.90;;
6095;SDS011;25081;42.698;23.298;2024-02-23T07:56:09;21.80;;;15.13;;
6095;SDS011;25081;42.698;23.298;2024-02-23T07:58:18;15.50;;;11.53;;
6095;SDS011;25081;42.698;23.298;2024-02-23T08:00:27;19.50;;;14.43;;
6095;SDS011;25081;42.698;23.298;2024-02-23T08:02:35;22.50;;;15.60;;
6095;SDS011;25081;42.698;23.298;2024-02-23T08:04:44;18.10;;;14.37;;
6095;SDS011;25081;42.698;23.298;2024-02-23T08:06:54;20.20;;;13.50;;
6095;SDS011;25081;42.698;23.298;2024-02-23T08:09:02;17.47;;;14.20;;
6095;SDS011;25081;42.698;23.298;2024-02-23T08:11:11;19.40;;;14.07;;
6095;SDS011;25081;42.698;23.298;2024-02-23T08:13:20;18.47;;;14.13;;
6095;SDS011;25081;42.698;23.298;2024-02-23T08:15:29;20.53;;;15.07;;
6095;SDS011;25081;42.698;23.298;2024-02-23T08:17:38;21.23;;;13.70;;
6095;SDS011;25081;42.698;23.298;2024-02-23T08:19:47;15.77;;;13.60;;
6095;SDS011;25081;42.698;23.298;2024-02-23T08:21:55;15.17;;;12.83;;
6095;SDS011;25081;42.698;23.298;2024-02-23T08:24:04;18.30;;;13.57;;
6095;SDS011;25081;42.698;23.298;2024-02-23T08:26:13;15.23;;;13.33;;
6095;SDS011;25081;42.698;23.298;2024-02-23T08:28:22;24.90;;;14.47;;
6095;SDS011;25081;42.698;23.298;2024-02-23T08:30:30;17.13;;;13.50;;
6095;SDS011;25081;42.698;23.298;2024-02-23T08:32:39;17.10;;;12.63;;
6095;SDS011;25081;42.698;23.298;2024-02-23T08:34:48;13.33;;;11.50;;
6095;SDS011;25081;42.698;23.298;2024-02-23T08:36:57;14.47;;;11.70;;
6095;SDS011;25081;42.698;23.298;2024-02-23T08:39:06;16.90;;;12.47;;
6095;SDS011;25081;42.698;23.298;2024-02-23T08:41:15;18.43;;;12.00;;
6095;SDS011;25081;42.698;23.298;2024-02-23T08:43:23;21.40;;;14.03;;
6095;SDS011;25081;42.698;23.298;2024-02-23T08:45:32;13.93;;;12.43;;
6095;SDS011;25081;42.698;23.298;2024-02-23T08:47:41;15.00;;;12.07;;
6095;SDS011;25081;42.698;23.298;2024-02-23T08:49:50;23.50;;;15.13;;
6095;SDS011;25081;42.698;23.298;2024-02-23T08:51:58;18.73;;;14.17;;
6095;SDS011;25081;42.698;23.298;2024-02-23T08:54:07;14.00;;;12.20;;
6095;SDS011;25081;42.698;23.298;2024-02-23T08:56:16;20.63;;;12.47;;
6095;SDS011;25081;42.698;23.298;2024-02-23T08:58:24;24.23;;;13.00;;
6095;SDS011;25081;42.698;23.298;2024-02-23T09:00:33;14.13;;;12.27;;
6095;SDS011;25081;42.698;23.298;2024-02-23T09:02:42;14.97;;;11.03;;
6095;SDS011;25081;42.698;23.298;2024-02-23T09:04:50;14.10;;;11.73;;
6095;SDS011;25081;42.698;23.298;2024-02-23T09:06:59;12.20;;;9.40;;
6095;SDS011;25081;42.698;23.298;2024-02-23T09:09:08;10.00;;;7.63;;
6095;SDS011;25081;42.698;23.298;2024-02-23T09:11:17;10.30;;;8.30;;
6095;SDS011;25081;42.698;23.298;2024-02-23T09:13:25;10.33;;;7.40;;
6095;SDS011;25081;42.698;23.298;2024-02-23T09:15:34;10.73;;;9.57;;
6095;SDS011;25081;42.698;23.298;2024-02-23T09:17:43;12.17;;;10.67;;
6095;SDS011;25081;42.698;23.298;2024-02-23T09:19:51;10.03;;;8.20;;
6095;SDS011;25081;42.698;23.298;2024-02-23T09:22:00;12.80;;;10.90;;
6095;SDS011;25081;42.698;23.298;2024-02-23T09:24:09;11.70;;;10.03;;
6095;SDS011;25081;42.698;23.298;2024-02-23T09:26:17;6.13;;;4.87;;
6095;SDS011;25081;42.698;23.298;2024-02-23T09:28:26;10.00;;;6.00;;
6095;SDS011;25081;42.698;23.298;2024-02-23T09:30:35;11.57;;;10.17;;
6095;SDS011;25081;42.698;23.298;2024-02-23T09:32:43;10.10;;;8.37;;
6095;SDS011;25081;42.698;23.298;2024-02-23T09:34:52;12.30;;;8.20;;
6095;SDS011;25081;42.698;23.298;2024-02-23T09:37:01;9.80;;;8.00;;
6095;SDS011;25081;42.698;23.298;2024-02-23T09:39:09;12.13;;;8.10;;
6095;SDS011;25081;42.698;23.298;2024-02-23T09:41:19;7.47;;;5.77;;
6095;SDS011;25081;42.698;23.298;2024-02-23T09:43:28;7.00;;;5.70;;
6095;SDS011;25081;42.698;23.298;2024-02-23T09:45:37;7.70;;;5.20;;
6095;SDS011;25081;42.698;23.298;2024-02-23T09:47:46;5.47;;;4.33;;
6095;SDS011;25081;42.698;23.298;2024-02-23T09:49:55;8.83;;;4.67;;
6095;SDS011;25081;42.698;23.298;2024-02-23T09:52:04;5.03;;;4.30;;
6095;SDS011;25081;42.698;23.298;2024-02-23T09:54:13;9.97;;;4.67;;
6095;SDS011;25081;42.698;23.298;2024-02-23T09:56:22;5.40;;;4.10;;
6095;SDS011;25081;42.698;23.298;2024-02-23T09:58:30;7.63;;;4.77;;
6095;SDS011;25081;42.698;23.298;2024-02-23T10:00:39;5.77;;;4.67;;
6095;SDS011;25081;42.698;23.298;2024-02-23T10:02:48;6.33;;;5.00;;
6095;SDS011;25081;42.698;23.298;2024-02-23T10:04:56;11.27;;;4.70;;
6095;SDS011;25081;42.698;23.298;2024-02-23T10:07:05;5.70;;;4.37;;
6095;SDS011;25081;42.698;23.298;2024-02-23T10:09:14;5.87;;;4.00;;
6095;SDS011;25081;42.698;23.298;2024-02-23T10:11:23;8.40;;;4.10;;
6095;SDS011;25081;42.698;23.298;2024-02-23T10:13:31;5.93;;;3.60;;
6095;SDS011;25081;42.698;23.298;2024-02-23T10:15:40;7.03;;;4.23;;
6095;SDS011;25081;42.698;23.298;2024-02-23T10:17:48;5.30;;;3.60;;
6095;SDS011;25081;42.698;23.298;2024-02-23T10:19:58;7.90;;;3.60;;
6095;SDS011;25081;42.698;23.298;2024-02-23T10:22:07;5.63;;;3.40;;
6095;SDS011;25081;42.698;23.298;2024-02-23T10:24:16;4.07;;;3.00;;
6095;SDS011;25081;42.698;23.298;2024-02-23T10:26:26;4.73;;;3.33;;
6095;SDS011;25081;42.698;23.298;2024-02-23T10:28:35;5.27;;;3.70;;
6095;SDS011;25081;42.698;23.298;2024-02-23T10:30:43;5.20;;;3.30;;
6095;SDS011;25081;42.698;23.298;2024-02-23T10:32:52;4.80;;;3.87;;
6095;SDS011;25081;42.698;23.298;2024-02-23T10:35:01;4.80;;;3.53;;
6095;SDS011;25081;42.698;23.298;2024-02-23T10:37:10;4.57;;;3.30;;
6095;SDS011;25081;42.698;23.298;2024-02-23T10:39:18;4.90;;;3.27;;
6095;SDS011;25081;42.698;23.298;2024-02-23T10:41:27;4.70;;;3.13;;
6095;SDS011;25081;42.698;23.298;2024-02-23T10:43:38;3.53;;;2.70;;
6095;SDS011;25081;42.698;23.298;2024-02-23T10:45:47;4.70;;;3.17;;
6095;SDS011;25081;42.698;23.298;2024-02-23T10:47:56;7.37;;;3.13;;
6095;SDS011;25081;42.698;23.298;2024-02-23T10:50:05;4.83;;;3.10;;
6095;SDS011;25081;42.698;23.298;2024-02-23T10:52:14;4.20;;;2.90;;
6095;SDS011;25081;42.698;23.298;2024-02-23T10:54:23;3.97;;;2.70;;
6095;SDS011;25081;42.698;23.298;2024-02-23T10:56:31;3.63;;;2.97;;
6095;SDS011;25081;42.698;23.298;2024-02-23T10:58:40;5.23;;;2.40;;
6095;SDS011;25081;42.698;23.298;2024-02-23T11:00:49;6.07;;;2.80;;
6095;SDS011;25081;42.698;23.298;2024-02-23T11:02:58;3.37;;;2.50;;
6095;SDS011;25081;42.698;23.298;2024-02-23T11:05:06;5.10;;;3.10;;
6095;SDS011;25081;42.698;23.298;2024-02-23T11:07:17;3.77;;;2.53;;
6095;SDS011;25081;42.698;23.298;2024-02-23T11:09:25;5.43;;;3.00;;
6095;SDS011;25081;42.698;23.298;2024-02-23T11:11:34;4.80;;;3.50;;
6095;SDS011;25081;42.698;23.298;2024-02-23T11:13:44;4.50;;;3.13;;
6095;SDS011;25081;42.698;23.298;2024-02-23T11:15:52;9.73;;;3.70;;
6095;SDS011;25081;42.698;23.298;2024-02-23T11:18:01;5.53;;;3.20;;
6095;SDS011;25081;42.698;23.298;2024-02-23T11:20:14;3.90;;;2.90;;
6095;SDS011;25081;42.698;23.298;2024-02-23T11:22:24;4.00;;;2.87;;
6095;SDS011;25081;42.698;23.298;2024-02-23T11:24:33;3.40;;;2.60;;
6095;SDS011;25081;42.698;23.298;2024-02-23T11:26:42;3.77;;;2.63;;
6095;SDS011;25081;42.698;23.298;2024-02-23T11:28:51;3.07;;;2.77;;
6095;SDS011;25081;42.698;23.298;2024-02-23T11:30:59;3.77;;;2.80;;
6095;SDS011;25081;42.698;23.298;2024-02-23T11:33:08;4.47;;;3.13;;
6095;SDS011;25081;42.698;23.298;2024-02-23T11:35:17;5.47;;;3.00;;
6095;SDS011;25081;42.698;23.298;2024-02-23T11:37:28;5.13;;;3.50;;
6095;SDS011;25081;42.698;23.298;2024-02-23T11:39:38;6.83;;;2.57;;
6095;SDS011;25081;42.698;23.298;2024-02-23T11:41:48;3.63;;;2.60;;
6095;SDS011;25081;42.698;23.298;2024-02-23T11:43:57;2.83;;;2.20;;
6095;SDS011;25081;42.698;23.298;2024-02-23T11:46:05;8.17;;;2.80;;
6095;SDS011;25081;42.698;23.298;2024-02-23T11:48:14;4.87;;;2.70;;
6095;SDS011;25081;42.698;23.298;2024-02-23T11:50:23;3.13;;;2.20;;
6095;SDS011;25081;42.698;23.298;2024-02-23T11:52:32;5.37;;;3.30;;
6095;SDS011;25081;42.698;23.298;2024-02-23T11:54:41;5.03;;;2.80;;
6095;SDS011;25081;42.698;23.298;2024-02-23T11:56:49;6.30;;;2.83;;
6095;SDS011;25081;42.698;23.298;2024-02-23T11:58:58;5.87;;;3.10;;
6095;SDS011;25081;42.698;23.298;2024-02-23T12:01:06;4.43;;;2.70;;
6095;SDS011;25081;42.698;23.298;2024-02-23T12:03:15;5.03;;;2.80;;
6095;SDS011;25081;42.698;23.298;2024-02-23T12:05:24;4.77;;;3.10;;
6095;SDS011;25081;42.698;23.298;2024-02-23T12:07:33;3.80;;;2.70;;
6095;SDS011;25081;42.698;23.298;2024-02-23T12:09:42;4.00;;;2.93;;
6095;SDS011;25081;42.698;23.298;2024-02-23T12:11:50;4.10;;;2.67;;
6095;SDS011;25081;42.698;23.298;2024-02-23T12:13:59;3.27;;;2.30;;
6095;SDS011;25081;42.698;23.298;2024-02-23T12:16:09;4.17;;;2.60;;
6095;SDS011;25081;42.698;23.298;2024-02-23T12:18:18;6.73;;;2.70;;
6095;SDS011;25081;42.698;23.298;2024-02-23T12:20:26;3.70;;;2.87;;
6095;SDS011;25081;42.698;23.298;2024-02-23T12:22:35;4.07;;;2.83;;
6095;SDS011;25081;42.698;23.298;2024-02-23T12:24:44;4.20;;;2.67;;
6095;SDS011;25081;42.698;23.298;2024-02-23T12:26:54;3.57;;;2.40;;
6095;SDS011;25081;42.698;23.298;2024-02-23T12:29:02;3.90;;;2.00;;
6095;SDS011;25081;42.698;23.298;2024-02-23T12:31:11;2.97;;;2.30;;
6095;SDS011;25081;42.698;23.298;2024-02-23T12:33:57;4.30;;;2.57;;
6095;SDS011;25081;42.698;23.298;2024-02-23T12:36:06;2.97;;;2.47;;
6095;SDS011;25081;42.698;23.298;2024-02-23T12:38:15;4.73;;;2.30;;
6095;SDS011;25081;42.698;23.298;2024-02-23T12:40:23;4.37;;;3.10;;
6095;SDS011;25081;42.698;23.298;2024-02-23T12:42:32;3.53;;;2.63;;
6095;SDS011;25081;42.698;23.298;2024-02-23T12:44:41;3.93;;;2.50;;